Time;durP1;ratioP1;P1;durP2;ratioP2;P2;SDS_P1;SDS_P2;PMS_P1;PMS_P2;Temp;Humidity;BMP_temperature;BMP_pressure;BME280_temperature;BME280_humidity;BME280_pressure;Samples;Min_cycle;Max_cycle;Signal;HPM_P1;HPM_P2
2021/01/22 00:00:36;;;;;;;26.20;15.53;;;4.80;99.90;;;;;;5030627;28;20301;-74
2021/01/22 00:03:02;;;;;;;25.20;14.60;;;4.80;99.90;;;;;;5035786;28;20233;-75
2021/01/22 00:05:29;;;;;;;29.60;15.70;;;4.80;99.90;;;;;;5030487;28;20230;-75
2021/01/22 00:07:55;;;;;;;28.23;16.03;;;4.80;99.90;;;;;;5029965;28;20207;-74
2021/01/22 00:10:21;;;;;;;28.67;15.33;;;4.80;99.90;;;;;;5035985;28;20202;-74
2021/01/22 00:12:48;;;;;;;29.97;16.53;;;4.80;99.90;;;;;;5033758;28;20273;-74
2021/01/22 00:15:15;;;;;;;28.80;17.00;;;4.80;99.90;;;;;;5033745;28;20681;-73
2021/01/22 00:17:42;;;;;;;24.83;14.67;;;4.80;99.90;;;;;;5031645;28;20649;-73
2021/01/22 00:20:10;;;;;;;32.00;16.40;;;4.70;99.90;;;;;;5034471;28;20264;-74
2021/01/22 00:22:36;;;;;;;28.33;16.43;;;4.70;99.90;;;;;;5032480;28;20704;-74
2021/01/22 00:25:03;;;;;;;29.53;15.67;;;4.70;99.90;;;;;;5032572;28;20297;-74
2021/01/22 00:27:29;;;;;;;28.73;16.00;;;4.70;99.90;;;;;;5033838;28;20234;-74
2021/01/22 00:29:56;;;;;;;26.00;15.87;;;4.70;99.90;;;;;;5031888;28;20566;-74
2021/01/22 00:32:23;;;;;;;29.33;15.43;;;4.70;99.90;;;;;;5035595;28;20592;-74
2021/01/22 00:34:51;;;;;;;27.63;15.20;;;4.60;99.90;;;;;;5034576;28;20210;-74
2021/01/22 00:37:18;;;;;;;26.63;13.90;;;4.70;99.90;;;;;;5031515;28;20294;-74
2021/01/22 00:39:45;;;;;;;27.87;15.33;;;4.70;99.90;;;;;;5033348;28;20297;-73
2021/01/22 00:42:11;;;;;;;27.47;15.27;;;4.70;99.90;;;;;;5036035;28;20209;-75
2021/01/22 00:44:38;;;;;;;28.17;14.83;;;4.70;99.90;;;;;;5034860;28;20214;-74
2021/01/22 00:47:06;;;;;;;26.90;15.37;;;4.70;99.90;;;;;;5031931;28;20230;-74
2021/01/22 00:49:33;;;;;;;29.30;15.27;;;4.70;99.90;;;;;;5034182;28;20310;-74
2021/01/22 00:51:59;;;;;;;27.70;15.10;;;4.70;99.90;;;;;;5035678;28;20293;-74
2021/01/22 00:54:26;;;;;;;26.57;14.33;;;4.70;99.90;;;;;;5030313;28;20337;-74
2021/01/22 00:56:52;;;;;;;28.33;14.63;;;4.70;99.90;;;;;;5031173;28;20199;-74
2021/01/22 00:59:18;;;;;;;28.37;15.20;;;4.70;99.90;;;;;;5032943;28;20301;-73
2021/01/22 01:01:45;;;;;;;32.10;16.50;;;4.70;99.90;;;;;;5035197;28;20244;-75
2021/01/22 01:04:11;;;;;;;27.47;15.17;;;4.70;99.90;;;;;;5032625;28;20284;-74
2021/01/22 01:06:38;;;;;;;30.43;15.90;;;4.70;99.90;;;;;;5031847;28;20780;-74
2021/01/22 01:09:05;;;;;;;27.43;14.93;;;4.80;99.90;;;;;;5033224;28;20217;-75
2021/01/22 01:11:31;;;;;;;28.10;15.60;;;4.70;99.90;;;;;;5033572;28;20294;-75
2021/01/22 01:13:58;;;;;;;30.53;15.83;;;4.80;99.90;;;;;;5035262;28;20211;-74
2021/01/22 01:16:24;;;;;;;27.37;15.63;;;4.80;99.90;;;;;;5034700;28;20577;-74
2021/01/22 01:18:51;;;;;;;29.73;16.27;;;4.80;99.90;;;;;;5035009;28;20213;-73
2021/01/22 01:21:17;;;;;;;29.93;15.90;;;4.80;99.90;;;;;;5032151;28;20289;-74
2021/01/22 01:23:44;;;;;;;28.93;15.90;;;4.80;99.90;;;;;;5032688;28;20309;-73
2021/01/22 01:26:11;;;;;;;28.67;16.17;;;4.70;99.90;;;;;;5031081;28;20305;-73
2021/01/22 01:28:37;;;;;;;30.57;16.33;;;4.80;99.90;;;;;;5034491;28;20373;-74
2021/01/22 01:31:03;;;;;;;28.93;15.47;;;4.80;99.90;;;;;;5030982;28;20221;-74
2021/01/22 01:33:30;;;;;;;29.70;16.70;;;4.70;99.90;;;;;;5032022;28;20294;-73
2021/01/22 01:35:56;;;;;;;29.70;16.63;;;4.70;99.90;;;;;;5029510;28;20209;-74
2021/01/22 01:38:22;;;;;;;28.70;15.90;;;4.70;99.90;;;;;;5034019;28;20644;-74
2021/01/22 01:40:50;;;;;;;30.77;16.97;;;4.70;99.90;;;;;;5031979;28;20719;-74
2021/01/22 01:43:16;;;;;;;30.47;16.10;;;4.70;99.90;;;;;;5032831;28;20543;-74
2021/01/22 01:45:43;;;;;;;30.97;17.27;;;4.70;99.90;;;;;;5029393;28;20252;-73
2021/01/22 01:48:10;;;;;;;30.60;17.13;;;4.60;99.90;;;;;;5029998;28;20245;-74
2021/01/22 01:50:38;;;;;;;31.40;16.60;;;4.60;99.90;;;;;;5030542;28;20297;-74
2021/01/22 01:53:05;;;;;;;28.67;16.67;;;4.60;99.90;;;;;;5028877;28;20211;-73
2021/01/22 01:55:32;;;;;;;28.13;16.07;;;4.60;99.90;;;;;;5032319;28;20290;-73
2021/01/22 01:58:01;;;;;;;30.33;16.30;;;4.50;99.90;;;;;;5031468;28;20640;-74
2021/01/22 02:00:28;;;;;;;31.10;16.83;;;4.50;99.90;;;;;;5027345;28;20234;-74
2021/01/22 02:02:54;;;;;;;30.23;16.37;;;4.50;99.90;;;;;;5034245;28;20199;-74
2021/01/22 02:05:21;;;;;;;29.13;17.63;;;4.40;99.90;;;;;;5033777;28;20256;-74
2021/01/22 02:07:48;;;;;;;30.43;17.17;;;4.40;99.90;;;;;;5026574;28;20294;-74
2021/01/22 02:10:15;;;;;;;29.83;15.90;;;4.40;99.90;;;;;;5033562;28;20739;-74
2021/01/22 02:12:42;;;;;;;31.27;16.87;;;4.30;99.90;;;;;;5033093;28;20765;-74
2021/01/22 02:15:12;;;;;;;30.43;18.00;;;4.30;99.90;;;;;;5030936;28;20575;-74
2021/01/22 02:17:40;;;;;;;29.10;16.50;;;4.20;99.90;;;;;;5027642;28;20202;-74
2021/01/22 02:20:22;;;;;;;32.17;17.43;;;4.30;99.90;;;;;;5031682;28;20217;-75
2021/01/22 02:22:48;;;;;;;30.10;16.43;;;4.20;99.90;;;;;;5031478;28;20209;-75
2021/01/22 02:25:18;;;;;;;31.80;17.20;;;4.20;99.90;;;;;;5034041;28;20214;-75
2021/01/22 02:27:48;;;;;;;34.60;18.17;;;4.30;99.90;;;;;;5032074;28;20269;-73
2021/01/22 02:30:16;;;;;;;30.60;17.07;;;4.30;99.90;;;;;;5031864;28;20276;-75
2021/01/22 02:32:47;;;;;;;30.83;18.17;;;4.30;99.90;;;;;;5033369;28;20234;-74
2021/01/22 02:35:16;;;;;;;28.63;16.33;;;4.30;99.90;;;;;;5032555;28;20210;-74
2021/01/22 02:37:47;;;;;;;33.17;18.40;;;4.20;99.90;;;;;;5031288;28;20293;-74
2021/01/22 02:40:15;;;;;;;33.37;19.43;;;4.30;99.90;;;;;;5031492;28;20202;-73
2021/01/22 02:42:42;;;;;;;34.27;19.07;;;4.20;99.90;;;;;;5031259;28;20647;-74
2021/01/22 02:45:12;;;;;;;32.40;18.27;;;4.20;99.90;;;;;;5029837;28;20214;-73
2021/01/22 02:47:43;;;;;;;36.03;19.27;;;4.10;99.90;;;;;;5029760;28;20215;-74
2021/01/22 02:50:11;;;;;;;33.80;17.90;;;4.00;99.90;;;;;;5030553;28;20195;-73
2021/01/22 02:52:37;;;;;;;30.03;18.60;;;4.00;99.90;;;;;;5028422;28;20217;-74
2021/01/22 02:55:06;;;;;;;36.53;18.30;;;4.00;99.90;;;;;;5034318;28;20683;-73
2021/01/22 02:57:38;;;;;;;32.97;18.07;;;4.00;99.90;;;;;;5026777;28;20199;-73
2021/01/22 03:00:13;;;;;;;28.87;17.30;;;3.90;99.90;;;;;;5032262;28;20252;-73
2021/01/22 03:02:46;;;;;;;32.67;18.03;;;3.90;99.90;;;;;;5026298;28;20611;-73
2021/01/22 03:05:15;;;;;;;29.77;18.80;;;3.90;99.90;;;;;;5031177;28;20206;-74
2021/01/22 03:07:46;;;;;;;31.53;18.50;;;3.90;99.90;;;;;;5027983;28;20210;-73
2021/01/22 03:10:16;;;;;;;31.40;18.87;;;3.80;99.90;;;;;;5033919;28;20199;-73
2021/01/22 03:12:47;;;;;;;34.33;17.57;;;3.90;99.90;;;;;;5031546;28;20680;-73
2021/01/22 03:15:16;;;;;;;32.93;18.43;;;3.80;99.90;;;;;;5031029;28;20610;-74
2021/01/22 03:17:43;;;;;;;32.53;19.90;;;3.70;99.90;;;;;;5029577;28;20210;-73
2021/01/22 03:20:11;;;;;;;37.97;19.73;;;3.70;99.90;;;;;;5034396;28;20261;-73
2021/01/22 03:22:38;;;;;;;33.97;18.40;;;3.60;99.90;;;;;;5029475;28;20264;-74
2021/01/22 03:25:05;;;;;;;34.97;19.20;;;3.60;99.90;;;;;;5033031;28;20981;-73
2021/01/22 03:27:32;;;;;;;31.93;19.03;;;3.60;99.90;;;;;;5031183;28;20309;-73
2021/01/22 03:29:58;;;;;;;33.13;17.47;;;3.60;99.90;;;;;;5033160;28;20230;-73
2021/01/22 03:32:25;;;;;;;29.40;18.20;;;3.50;99.90;;;;;;5033847;28;20334;-73
2021/01/22 03:34:52;;;;;;;31.10;18.23;;;3.40;99.90;;;;;;5027040;28;20287;-73
2021/01/22 03:37:18;;;;;;;34.00;18.23;;;3.40;99.90;;;;;;5029531;28;20206;-74
2021/01/22 03:39:44;;;;;;;28.63;17.67;;;3.40;99.90;;;;;;5030269;28;20346;-73
2021/01/22 03:42:11;;;;;;;29.27;16.27;;;3.30;99.90;;;;;;5030888;28;20210;-73
2021/01/22 03:44:38;;;;;;;36.97;19.67;;;3.30;99.90;;;;;;5033572;28;20290;-73
2021/01/22 03:47:06;;;;;;;31.63;17.90;;;3.30;99.90;;;;;;5031125;28;20288;-73
2021/01/22 03:49:34;;;;;;;28.33;18.00;;;3.20;99.90;;;;;;5033163;28;20715;-73
2021/01/22 03:52:01;;;;;;;29.70;16.80;;;3.20;99.90;;;;;;5031920;28;20255;-73
2021/01/22 03:54:27;;;;;;;34.47;17.77;;;3.20;99.90;;;;;;5033671;28;20212;-73
2021/01/22 03:56:53;;;;;;;32.50;17.67;;;3.10;99.90;;;;;;5027563;28;20297;-73
2021/01/22 03:59:20;;;;;;;32.53;17.47;;;3.10;99.90;;;;;;5032889;28;20633;-72
2021/01/22 04:01:47;;;;;;;34.37;18.00;;;3.10;99.90;;;;;;5032638;28;20228;-74
2021/01/22 04:04:13;;;;;;;29.10;17.20;;;3.10;99.90;;;;;;5030260;28;20214;-73
2021/01/22 04:06:40;;;;;;;29.43;17.77;;;3.10;99.90;;;;;;5028486;28;20264;-74
2021/01/22 04:09:07;;;;;;;32.57;17.97;;;3.10;99.90;;;;;;5030719;28;20202;-73
2021/01/22 04:11:33;;;;;;;27.23;17.10;;;3.00;99.90;;;;;;5030550;28;20261;-73
2021/01/22 04:14:00;;;;;;;30.13;17.13;;;3.00;99.90;;;;;;5026429;28;20258;-73
2021/01/22 04:16:26;;;;;;;30.67;17.30;;;2.90;99.90;;;;;;5028106;28;20289;-73
2021/01/22 04:18:53;;;;;;;33.20;18.20;;;2.90;99.90;;;;;;5032653;28;20287;-72
2021/01/22 04:21:20;;;;;;;35.50;16.60;;;2.80;99.90;;;;;;5029875;28;20211;-74
2021/01/22 04:23:47;;;;;;;29.70;17.00;;;2.80;99.90;;;;;;5032438;28;20723;-74
2021/01/22 04:26:14;;;;;;;30.07;17.27;;;2.70;99.90;;;;;;5031256;28;20225;-73
2021/01/22 04:28:41;;;;;;;33.10;17.40;;;2.70;99.90;;;;;;5033160;28;20289;-74
2021/01/22 04:31:07;;;;;;;31.13;17.07;;;2.70;99.90;;;;;;5032253;28;20203;-74
2021/01/22 04:33:33;;;;;;;30.73;17.00;;;2.70;99.90;;;;;;5034689;28;20217;-74
2021/01/22 04:36:00;;;;;;;27.93;16.53;;;2.70;99.90;;;;;;5034935;28;20203;-74
2021/01/22 04:38:26;;;;;;;26.43;16.13;;;2.70;99.90;;;;;;5036899;28;20234;-75
2021/01/22 04:40:56;;;;;;;31.53;17.27;;;2.70;99.90;;;;;;5031857;28;20294;-74
2021/01/22 04:43:22;;;;;;;28.67;16.97;;;2.70;99.90;;;;;;5035498;28;20721;-74
2021/01/22 04:45:49;;;;;;;28.10;16.37;;;2.70;99.90;;;;;;5034749;28;20258;-74
2021/01/22 04:48:16;;;;;;;32.67;17.70;;;2.70;99.90;;;;;;5034000;28;20671;-74
2021/01/22 04:50:43;;;;;;;30.17;17.93;;;2.70;99.90;;;;;;5034378;28;20214;-73
2021/01/22 04:53:11;;;;;;;30.40;16.43;;;2.70;99.90;;;;;;5036554;28;20341;-74
2021/01/22 04:55:41;;;;;;;27.77;17.57;;;2.60;99.90;;;;;;5034413;28;20301;-74
2021/01/22 04:58:10;;;;;;;28.97;16.80;;;2.60;99.90;;;;;;5036058;28;20203;-75
2021/01/22 05:00:39;;;;;;;26.37;15.60;;;2.60;99.90;;;;;;5032110;28;20249;-74
2021/01/22 05:03:06;;;;;;;24.80;15.40;;;2.60;99.90;;;;;;5035406;28;20210;-74
2021/01/22 05:05:33;;;;;;;26.23;15.87;;;2.60;99.90;;;;;;5030265;28;20282;-75
2021/01/22 05:08:01;;;;;;;28.33;14.93;;;2.60;99.90;;;;;;5036853;28;20781;-74
2021/01/22 05:10:28;;;;;;;28.70;16.00;;;2.60;99.90;;;;;;5036105;28;20205;-74
2021/01/22 05:12:54;;;;;;;24.70;14.40;;;2.70;99.90;;;;;;5031209;28;20269;-73
2021/01/22 05:15:24;;;;;;;26.27;14.03;;;2.70;99.90;;;;;;5031999;28;20293;-74
2021/01/22 05:18:01;;;;;;;23.67;13.43;;;2.70;99.90;;;;;;5036507;28;20210;-74
2021/01/22 05:20:29;;;;;;;26.43;14.30;;;2.70;99.90;;;;;;5036242;28;20663;-73
2021/01/22 05:22:57;;;;;;;24.60;13.90;;;2.80;99.90;;;;;;5035764;28;20202;-74
2021/01/22 05:25:24;;;;;;;27.63;14.57;;;2.90;99.90;;;;;;5032993;28;20682;-74
2021/01/22 05:27:51;;;;;;;20.23;12.33;;;2.80;99.90;;;;;;5034939;28;20588;-74
2021/01/22 05:30:19;;;;;;;27.93;13.87;;;2.90;99.90;;;;;;5033449;28;20656;-74
2021/01/22 05:32:46;;;;;;;19.93;13.17;;;2.90;99.90;;;;;;5032391;28;20325;-73
2021/01/22 05:35:13;;;;;;;23.87;12.60;;;3.00;99.90;;;;;;5032252;28;20210;-73
2021/01/22 05:37:52;;;;;;;20.03;12.37;;;3.00;99.90;;;;;;5033774;28;20297;-75
2021/01/22 05:40:20;;;;;;;21.17;12.57;;;3.10;99.90;;;;;;5028993;28;20207;-74
2021/01/22 05:42:48;;;;;;;21.17;12.53;;;3.10;99.90;;;;;;5032064;28;20211;-75
2021/01/22 05:45:15;;;;;;;21.00;12.00;;;3.20;99.90;;;;;;5029698;28;20246;-76
2021/01/22 05:47:42;;;;;;;19.97;12.63;;;3.20;99.90;;;;;;5034585;28;20321;-75
2021/01/22 05:50:10;;;;;;;25.00;13.23;;;3.30;99.90;;;;;;5031754;28;20436;-74
2021/01/22 05:52:36;;;;;;;20.53;12.10;;;3.40;99.90;;;;;;5025188;28;20290;-74
2021/01/22 05:55:20;;;;;;;20.07;11.43;;;3.40;99.90;;;;;;5033646;28;20584;-74
2021/01/22 05:57:46;;;;;;;19.00;11.83;;;3.50;99.90;;;;;;5029035;28;20206;-74
2021/01/22 06:00:15;;;;;;;18.80;11.50;;;3.60;99.90;;;;;;5033169;28;20711;-75
2021/01/22 06:02:42;;;;;;;21.47;12.97;;;3.60;99.90;;;;;;5030297;28;20203;-73
2021/01/22 06:05:12;;;;;;;20.57;12.17;;;3.60;99.90;;;;;;5027801;28;20294;-73
2021/01/22 06:07:41;;;;;;;18.73;11.77;;;3.60;99.90;;;;;;5031533;28;20257;-74
2021/01/22 06:10:16;;;;;;;19.13;11.17;;;3.70;99.90;;;;;;5034715;28;20220;-74
2021/01/22 06:12:49;;;;;;;19.73;11.00;;;3.70;99.90;;;;;;5034951;28;20671;-73
2021/01/22 06:15:17;;;;;;;19.33;10.40;;;3.70;99.90;;;;;;5031403;28;20207;-73
2021/01/22 06:17:47;;;;;;;20.17;11.37;;;3.80;99.90;;;;;;5031827;28;20272;-74
2021/01/22 06:20:17;;;;;;;20.03;10.80;;;3.80;99.90;;;;;;5026396;28;20203;-74
2021/01/22 06:22:53;;;;;;;24.03;11.50;;;3.80;99.90;;;;;;5033330;28;20218;-74
2021/01/22 06:25:20;;;;;;;18.20;11.80;;;3.80;99.90;;;;;;5029936;28;20202;-74
2021/01/22 06:27:47;;;;;;;17.13;10.33;;;3.90;99.90;;;;;;5032962;28;20240;-74
2021/01/22 06:30:15;;;;;;;18.27;11.53;;;3.90;99.90;;;;;;5031465;28;20574;-75
2021/01/22 06:32:42;;;;;;;18.13;10.77;;;3.90;99.90;;;;;;5031004;28;20226;-74
2021/01/22 06:35:10;;;;;;;20.07;11.43;;;3.90;99.90;;;;;;5029105;28;20225;-74
2021/01/22 06:37:38;;;;;;;18.63;11.20;;;3.90;99.90;;;;;;5031214;28;20249;-74
2021/01/22 06:40:06;;;;;;;19.87;10.90;;;4.00;99.90;;;;;;5035640;28;20262;-74
2021/01/22 06:42:37;;;;;;;21.00;11.53;;;4.00;99.90;;;;;;5032255;28;20290;-76
2021/01/22 06:45:05;;;;;;;18.30;10.90;;;4.00;99.90;;;;;;5028020;28;20213;-74
2021/01/22 06:47:32;;;;;;;17.90;10.77;;;4.00;99.90;;;;;;5030946;28;20248;-76
2021/01/22 06:49:59;;;;;;;16.53;11.00;;;4.10;99.90;;;;;;5028383;28;20277;-75
2021/01/22 06:52:25;;;;;;;20.17;10.33;;;4.10;99.90;;;;;;5031698;28;20211;-75
2021/01/22 06:55:09;;;;;;;19.67;10.60;;;4.10;99.90;;;;;;5030501;28;20648;-75
2021/01/22 06:57:37;;;;;;;22.00;11.27;;;4.20;99.90;;;;;;5029635;28;20317;-74
2021/01/22 07:00:45;;;;;;;17.67;10.90;;;4.20;99.90;;;;;;5030940;28;20588;-75
2021/01/22 07:03:49;;;;;;;16.87;9.83;;;4.20;99.90;;;;;;5024327;28;20250;-75
2021/01/22 07:06:52;;;;;;;16.90;10.43;;;4.30;99.90;;;;;;5030096;28;20353;-71
2021/01/22 07:09:18;;;;;;;18.00;9.87;;;4.30;99.90;;;;;;4992664;28;20212;-74
2021/01/22 07:12:07;;;;;;;16.67;10.27;;;4.40;99.90;;;;;;4991807;28;20232;-74
2021/01/22 07:14:43;;;;;;;23.07;10.90;;;4.40;99.90;;;;;;5011848;28;20238;-73
2021/01/22 07:17:21;;;;;;;18.87;10.60;;;4.40;99.90;;;;;;5028506;28;20195;-75
2021/01/22 07:19:52;;;;;;;15.43;10.07;;;4.50;99.90;;;;;;5022199;28;20668;-73
2021/01/22 07:22:19;;;;;;;17.57;10.47;;;4.60;99.90;;;;;;5026766;28;20203;-74
2021/01/22 07:24:50;;;;;;;18.57;10.23;;;4.60;99.90;;;;;;5030434;28;20293;-73
2021/01/22 07:27:18;;;;;;;13.60;9.47;;;4.70;99.90;;;;;;5027278;28;20218;-74
2021/01/22 07:30:11;;;;;;;16.07;9.70;;;4.80;99.90;;;;;;5027922;28;20236;-74
2021/01/22 07:32:38;;;;;;;15.43;9.57;;;4.80;99.90;;;;;;5027705;28;20211;-74
2021/01/22 07:35:07;;;;;;;15.50;9.17;;;4.80;99.90;;;;;;5030936;28;20238;-74
2021/01/22 07:37:39;;;;;;;15.80;9.93;;;4.90;99.90;;;;;;5031409;28;20286;-74
2021/01/22 07:40:12;;;;;;;18.00;9.97;;;4.90;99.90;;;;;;5026399;28;20590;-73
2021/01/22 07:42:40;;;;;;;15.50;9.50;;;5.00;99.90;;;;;;5032532;28;20697;-72
2021/01/22 07:45:13;;;;;;;18.53;9.90;;;5.00;99.90;;;;;;5034420;28;20221;-74
2021/01/22 07:47:41;;;;;;;18.10;9.03;;;5.00;99.90;;;;;;5031659;28;20245;-72
2021/01/22 07:50:09;;;;;;;15.07;9.00;;;5.10;99.90;;;;;;5033713;28;20368;-74
2021/01/22 07:52:37;;;;;;;15.27;9.80;;;5.10;99.90;;;;;;5032000;28;20288;-73
2021/01/22 07:55:04;;;;;;;18.30;9.70;;;5.20;99.90;;;;;;5016972;28;20298;-74
2021/01/22 07:57:31;;;;;;;15.97;9.67;;;5.20;99.90;;;;;;5019897;28;20291;-73
2021/01/22 08:00:06;;;;;;;14.93;9.23;;;5.30;99.90;;;;;;5017645;28;20256;-73
2021/01/22 08:02:33;;;;;;;19.67;9.27;;;5.40;99.90;;;;;;5033882;28;20202;-72
2021/01/22 08:05:00;;;;;;;17.57;9.53;;;5.50;99.90;;;;;;5027515;28;20238;-73
2021/01/22 08:07:31;;;;;;;16.63;9.30;;;5.60;99.90;;;;;;5017884;28;20310;-73
2021/01/22 08:09:58;;;;;;;16.53;10.17;;;5.90;99.90;;;;;;5029576;28;20203;-75
2021/01/22 08:12:24;;;;;;;15.73;8.63;;;6.00;99.90;;;;;;5026404;28;20254;-72
2021/01/22 08:14:51;;;;;;;16.03;9.17;;;6.30;99.90;;;;;;5025760;28;20298;-72
2021/01/22 08:17:19;;;;;;;16.03;8.70;;;6.60;99.90;;;;;;5030421;28;20264;-75
2021/01/22 08:19:46;;;;;;;15.67;10.37;;;6.80;99.90;;;;;;5030829;28;20232;-75
2021/01/22 08:22:15;;;;;;;15.20;9.00;;;7.10;99.90;;;;;;5034860;28;20237;-75
2021/01/22 08:24:50;;;;;;;14.07;8.13;;;7.30;99.90;;;;;;5033456;28;20209;-74
2021/01/22 08:27:20;;;;;;;12.47;8.73;;;7.50;99.90;;;;;;5033884;28;20632;-71
2021/01/22 08:29:47;;;;;;;14.50;8.40;;;7.50;99.90;;;;;;5038132;28;20207;-75
2021/01/22 08:32:18;;;;;;;13.97;8.47;;;7.50;99.90;;;;;;5027567;28;20224;-75
2021/01/22 08:34:46;;;;;;;12.30;7.20;;;7.70;99.90;;;;;;5025930;28;20211;-75
2021/01/22 08:37:14;;;;;;;12.83;8.43;;;7.80;99.90;;;;;;5028747;28;20238;-73
2021/01/22 08:39:55;;;;;;;12.80;8.83;;;7.80;99.90;;;;;;5037124;28;20790;-73
2021/01/22 08:42:22;;;;;;;12.50;8.30;;;7.90;99.90;;;;;;5033329;28;20194;-76
2021/01/22 08:44:57;;;;;;;14.70;8.73;;;8.00;99.90;;;;;;5034372;28;20298;-75
2021/01/22 08:47:25;;;;;;;14.17;8.13;;;8.10;99.90;;;;;;5030908;28;20225;-74
2021/01/22 08:49:56;;;;;;;11.73;8.40;;;8.20;99.90;;;;;;5029540;28;20271;-75
2021/01/22 08:52:23;;;;;;;12.40;8.13;;;8.20;99.90;;;;;;5021814;28;20249;-74
2021/01/22 08:54:53;;;;;;;16.07;8.43;;;8.20;99.90;;;;;;5035291;28;20622;-74
2021/01/22 08:57:19;;;;;;;13.27;8.93;;;8.20;99.90;;;;;;5035560;28;20249;-75
2021/01/22 08:59:50;;;;;;;12.63;8.47;;;8.10;99.90;;;;;;5029473;28;20631;-73
2021/01/22 09:02:36;;;;;;;15.03;8.83;;;8.10;99.90;;;;;;5029145;28;20219;-73
2021/01/22 09:05:08;;;;;;;12.33;8.50;;;8.10;99.90;;;;;;5027523;28;20233;-74
2021/01/22 09:07:35;;;;;;;13.00;8.60;;;8.50;99.90;;;;;;5027325;28;20241;-74
2021/01/22 09:10:02;;;;;;;14.47;8.43;;;9.40;99.90;;;;;;5031935;28;20199;-74
2021/01/22 09:12:34;;;;;;;11.33;7.97;;;11.00;99.90;;;;;;5028457;28;20222;-74
2021/01/22 09:15:03;;;;;;;13.90;8.40;;;12.60;98.90;;;;;;5037181;28;20345;-75
2021/01/22 09:17:36;;;;;;;14.77;8.10;;;14.10;95.40;;;;;;5033383;28;20358;-74
2021/01/22 09:20:12;;;;;;;13.57;8.87;;;16.20;83.10;;;;;;5029336;28;20277;-74
2021/01/22 09:22:39;;;;;;;11.13;8.00;;;17.70;64.60;;;;;;5030388;28;20206;-74
2021/01/22 09:25:07;;;;;;;10.10;7.93;;;19.20;58.70;;;;;;5029681;28;20214;-74
2021/01/22 09:27:35;;;;;;;11.93;7.60;;;19.90;53.50;;;;;;5024746;28;20223;-73
2021/01/22 09:30:01;;;;;;;12.40;7.90;;;19.50;50.70;;;;;;5026980;28;20205;-74
2021/01/22 09:32:29;;;;;;;12.10;8.20;;;18.90;51.00;;;;;;5029747;28;20572;-78
2021/01/22 09:34:56;;;;;;;10.90;8.03;;;18.20;52.70;;;;;;5027735;28;20674;-72
2021/01/22 09:37:23;;;;;;;11.13;8.60;;;17.90;52.70;;;;;;5035975;28;20217;-75
2021/01/22 09:39:49;;;;;;;11.03;8.17;;;17.60;53.80;;;;;;5033225;28;20244;-75
2021/01/22 09:42:17;;;;;;;9.63;8.10;;;18.00;55.10;;;;;;5024022;28;20461;-76
2021/01/22 09:44:43;;;;;;;13.07;8.30;;;19.30;52.70;;;;;;5029620;28;20297;-74
2021/01/22 09:47:10;;;;;;;10.30;8.10;;;19.80;49.80;;;;;;5031409;28;20306;-74
2021/01/22 09:49:36;;;;;;;13.07;8.67;;;20.00;48.50;;;;;;5028186;28;20614;-73
2021/01/22 09:52:04;;;;;;;12.37;8.73;;;19.60;48.10;;;;;;5025055;28;20721;-75
2021/01/22 09:54:30;;;;;;;11.73;9.00;;;19.20;48.80;;;;;;5032375;28;20211;-75
2021/01/22 09:56:57;;;;;;;11.83;7.90;;;18.80;49.40;;;;;;5032237;28;20733;-74
2021/01/22 09:59:23;;;;;;;11.80;8.43;;;18.50;50.10;;;;;;5023546;28;20318;-75
2021/01/22 10:01:50;;;;;;;12.48;8.75;;;18.50;50.40;;;;;;5029534;28;20280;-74
2021/01/22 10:04:18;;;;;;;11.25;9.05;;;18.70;51.00;;;;;;5034582;28;20225;-74
2021/01/22 10:06:46;;;;;;;12.05;8.25;;;19.50;50.00;;;;;;5031906;28;20683;-73
2021/01/22 10:09:13;;;;;;;11.30;8.25;;;20.90;49.70;;;;;;5031144;28;20285;-74
2021/01/22 10:11:40;;;;;;;12.73;9.10;;;22.80;45.40;;;;;;5028168;28;20268;-75
2021/01/22 10:14:07;;;;;;;11.27;8.45;;;24.20;43.40;;;;;;5026774;28;20222;-72
2021/01/22 10:16:34;;;;;;;12.68;8.77;;;25.90;41.40;;;;;;5025314;28;20568;-73
2021/01/22 10:19:02;;;;;;;9.50;7.70;;;27.40;38.00;;;;;;5029410;28;20298;-74
2021/01/22 10:21:28;;;;;;;12.27;8.90;;;28.40;36.00;;;;;;5028641;28;20240;-73
2021/01/22 10:23:56;;;;;;;8.70;7.53;;;28.70;34.70;;;;;;5029254;28;20256;-73
2021/01/22 10:26:24;;;;;;;12.23;8.75;;;28.10;34.00;;;;;;5020106;28;20222;-74
2021/01/22 10:28:51;;;;;;;9.98;8.38;;;26.90;34.60;;;;;;5024160;28;20230;-73
2021/01/22 10:31:18;;;;;;;12.23;8.90;;;25.70;35.30;;;;;;5025384;28;20250;-72
2021/01/22 10:33:46;;;;;;;10.00;8.30;;;24.40;37.40;;;;;;5028646;28;20214;-74
2021/01/22 10:36:14;;;;;;;10.82;8.40;;;23.70;39.50;;;;;;5027780;28;20648;-73
2021/01/22 10:38:41;;;;;;;10.23;8.52;;;23.70;39.90;;;;;;5033446;28;20269;-73
2021/01/22 10:41:07;;;;;;;14.15;9.48;;;23.70;38.60;;;;;;5027285;28;20313;-73
2021/01/22 10:43:35;;;;;;;13.55;8.38;;;22.90;38.70;;;;;;5029263;28;20229;-75
2021/01/22 10:46:01;;;;;;;12.57;8.60;;;21.70;40.00;;;;;;5028739;28;20203;-73
2021/01/22 10:48:28;;;;;;;12.18;8.68;;;20.70;41.40;;;;;;5034361;28;20301;-73
2021/01/22 10:50:55;;;;;;;14.32;8.43;;;19.70;42.70;;;;;;5034629;28;20820;-73
2021/01/22 10:53:21;;;;;;;11.45;8.05;;;18.70;44.10;;;;;;5028614;28;20199;-74
2021/01/22 10:55:48;;;;;;;10.70;8.13;;;17.70;45.70;;;;;;5031985;28;20210;-74
2021/01/22 10:58:15;;;;;;;11.53;8.60;;;16.80;47.40;;;;;;5027792;28;20195;-74
2021/01/22 11:00:42;;;;;;;13.13;8.80;;;16.00;49.20;;;;;;5022981;28;20230;-73
2021/01/22 11:03:09;;;;;;;13.40;9.30;;;15.60;50.40;;;;;;5014581;28;20656;-74
2021/01/22 11:05:35;;;;;;;13.13;8.53;;;15.20;51.10;;;;;;5022309;28;20255;-74
2021/01/22 11:08:03;;;;;;;13.60;8.53;;;14.60;52.10;;;;;;5022484;28;20227;-75
2021/01/22 11:10:30;;;;;;;11.53;8.37;;;14.10;53.00;;;;;;5030308;28;20214;-74
2021/01/22 11:12:57;;;;;;;15.60;9.07;;;13.60;54.10;;;;;;5021918;28;20354;-74
2021/01/22 11:15:23;;;;;;;13.27;9.20;;;13.00;55.60;;;;;;5023004;28;20242;-75
2021/01/22 11:17:50;;;;;;;13.60;8.17;;;12.60;57.10;;;;;;5015038;28;20266;-74
2021/01/22 11:20:18;;;;;;;12.80;8.93;;;12.20;58.30;;;;;;5024681;28;20207;-74
2021/01/22 11:22:46;;;;;;;13.00;8.57;;;11.80;59.50;;;;;;5016115;28;20211;-75
2021/01/22 11:25:15;;;;;;;11.97;8.30;;;11.60;61.10;;;;;;5029962;28;20207;-73
2021/01/22 11:27:42;;;;;;;12.07;8.37;;;11.40;63.10;;;;;;5031083;28;20226;-74
2021/01/22 11:30:10;;;;;;;13.60;8.53;;;11.20;65.60;;;;;;5021710;28;20217;-74
2021/01/22 11:32:37;;;;;;;12.23;8.23;;;11.40;69.10;;;;;;5019128;28;20203;-74
2021/01/22 11:35:09;;;;;;;14.50;8.40;;;11.80;70.70;;;;;;5017271;28;20566;-76
2021/01/22 11:37:36;;;;;;;14.60;8.90;;;12.10;70.70;;;;;;5031323;28;20676;-72
2021/01/22 11:40:04;;;;;;;10.53;7.40;;;13.50;88.50;;;;;;5026923;28;20237;-72
2021/01/22 11:42:30;;;;;;;10.60;7.10;;;16.70;73.50;;;;;;5021567;28;20234;-74
2021/01/22 11:44:56;;;;;;;11.87;7.97;;;19.40;56.20;;;;;;5023255;28;20325;-74
2021/01/22 11:47:23;;;;;;;9.80;7.20;;;21.60;50.30;;;;;;5032981;28;20226;-75
2021/01/22 11:49:49;;;;;;;10.82;7.60;;;22.20;46.00;;;;;;5026801;28;20670;-73
2021/01/22 11:52:18;;;;;;;9.38;7.10;;;22.70;47.20;;;;;;5040567;28;20570;-73
2021/01/22 11:54:44;;;;;;;11.02;7.55;;;23.50;44.00;;;;;;5027082;28;20215;-73
2021/01/22 11:57:11;;;;;;;9.98;7.38;;;25.10;43.90;;;;;;5018306;28;20214;-74
2021/01/22 11:59:37;;;;;;;9.60;7.43;;;26.80;38.80;;;;;;5016726;28;20330;-74
2021/01/22 12:02:04;;;;;;;9.77;7.85;;;28.40;37.20;;;;;;5013426;28;20214;-73
2021/01/22 12:04:30;;;;;;;9.55;6.85;;;29.70;34.70;;;;;;5022357;28;20205;-74
2021/01/22 12:06:57;;;;;;;10.38;7.90;;;30.10;32.80;;;;;;5033037;28;20226;-73
2021/01/22 12:09:25;;;;;;;10.48;7.78;;;28.90;31.10;;;;;;5016407;28;20203;-73
2021/01/22 12:11:51;;;;;;;9.25;7.25;;;26.70;32.90;;;;;;5013474;28;20272;-74
2021/01/22 12:14:17;;;;;;;10.80;7.97;;;24.30;35.80;;;;;;5014301;28;20623;-74
2021/01/22 12:16:45;;;;;;;12.00;8.00;;;21.80;38.80;;;;;;5014436;28;20302;-74
2021/01/22 12:19:11;;;;;;;9.57;7.90;;;19.70;42.00;;;;;;5032893;28;20298;-76
2021/01/22 12:21:37;;;;;;;11.43;7.97;;;17.90;44.90;;;;;;5022781;28;20251;-75
2021/01/22 12:24:04;;;;;;;15.13;8.50;;;16.50;47.60;;;;;;5029660;28;20208;-75
2021/01/22 12:26:35;;;;;;;11.23;7.90;;;15.30;50.40;;;;;;5024142;28;20227;-72
2021/01/22 12:29:01;;;;;;;11.37;7.60;;;14.30;52.80;;;;;;5027229;28;20712;-74
2021/01/22 12:31:28;;;;;;;13.57;8.77;;;13.60;54.60;;;;;;5031155;28;20214;-75
2021/01/22 12:33:54;;;;;;;14.50;8.60;;;13.00;56.30;;;;;;5029009;28;20241;-74
2021/01/22 12:36:20;;;;;;;13.33;8.27;;;12.60;57.90;;;;;;5023660;28;20308;-71
2021/01/22 12:38:47;;;;;;;14.33;8.73;;;12.20;59.50;;;;;;5024659;28;20214;-73
2021/01/22 12:41:13;;;;;;;15.93;9.23;;;11.80;61.50;;;;;;5026982;28;20203;-72
2021/01/22 12:43:42;;;;;;;11.90;8.80;;;11.60;64.70;;;;;;5028529;28;20210;-73